| time (UTC) | temp F | wind direction | speed MPH | gust MPH | rain 1hr in | rain 24hr in | rain mn in | humidity % | barometer mb |
| 20260831101515 | 72 | 110 | 0.0 | 0.0 | 0.00 | 0.14 | 0.00 | 100 | 1016.5 |
| 20260831100007 | 72 | 110 | 0.0 | 0.0 | 0.00 | 0.14 | 0.00 | 100 | 1016.6 |
| 20260831094507 | 72 | 110 | 0.0 | 0.0 | 0.00 | 0.14 | 0.00 | 100 | 1016.5 |
| 20260831092958 | 72 | 110 | 0.0 | 0.0 | 0.00 | 0.14 | 0.00 | 100 | 1016.6 |
| 20260831091448 | 72 | 110 | 0.0 | 1.0 | 0.00 | 0.14 | 0.00 | 100 | 1016.6 |
| 20260831085944 | 72 | 110 | 0.0 | 0.0 | 0.00 | 0.14 | 0.00 | 100 | 1016.5 |
| 20260831084443 | 72 | 110 | 0.0 | 0.0 | 0.00 | 0.14 | 0.00 | 100 | 1016.4 |
| 20260831082944 | 72 | 110 | 0.0 | 0.0 | 0.00 | 0.14 | 0.00 | 100 | 1016.4 |
| 20260831081440 | 72 | 110 | 0.0 | 0.0 | 0.00 | 0.14 | 0.00 | 100 | 1016.3 |
| 20260831075943 | 72 | 110 | 0.0 | 0.0 | 0.00 | 0.14 | 0.00 | 100 | 1016.2 |
| 20260831074448 | 72 | 110 | 0.0 | 0.0 | 0.00 | 0.14 | 0.00 | 100 | 1016.2 |
| 20260831072934 | 72 | 110 | 0.0 | 0.0 | 0.00 | 0.14 | 0.00 | 100 | 1016.1 |
| 20260831071425 | 72 | 110 | 0.0 | 0.0 | 0.00 | 0.14 | 0.00 | 100 | 1016.2 |
| 20260831065925 | 72 | 110 | 0.0 | 0.0 | 0.00 | 0.14 | 0.00 | 100 | 1016.4 |
| 20260831064421 | 72 | 110 | 0.0 | 0.0 | 0.00 | 0.14 | 0.00 | 100 | 1016.5 |
| 20260831062915 | 72 | 110 | 0.0 | 0.0 | 0.00 | 0.14 | 0.00 | 100 | 1016.5 |
| 20260831061404 | 73 | 110 | 0.0 | 0.0 | 0.00 | 0.14 | 0.00 | 100 | 1016.6 |
| 20260831055856 | 73 | 110 | 0.0 | 0.0 | 0.00 | 0.14 | 0.00 | 100 | 1016.9 |
| 20260831054342 | 73 | 110 | 0.0 | 0.0 | 0.00 | 0.14 | 0.00 | 100 | 1016.7 |
| 20260831052838 | 73 | 110 | 0.0 | 0.0 | 0.00 | 0.14 | 0.00 | 100 | 1016.8 |
| 20260831051338 | 73 | 110 | 0.0 | 0.0 | 0.00 | 0.14 | 0.00 | 100 | 1016.9 |
| 20260831050539 | 73 | 110 | 0.0 | 0.0 | 0.00 | 0.14 | 0.00 | 100 | 1017.0 |
| 20260831044338 | 73 | 110 | 0.0 | 1.0 | 0.00 | 0.14 | 0.00 | 100 | 1017.0 |
| 20260831042829 | 73 | 110 | 0.0 | 2.0 | 0.00 | 0.14 | 0.00 | 100 | 1017.2 |
| 20260831041326 | 73 | 110 | 0.0 | 1.0 | 0.00 | 0.14 | 0.00 | 100 | 1017.1 |
| 20260831035825 | 73 | 110 | 0.0 | 0.0 | 0.00 | 0.14 | 0.14 | 100 | 1017.1 |
| 20260831034317 | 73 | 110 | 0.0 | 0.0 | 0.00 | 0.14 | 0.14 | 100 | 1017.1 |
| 20260831032810 | 73 | 110 | 0.0 | 0.0 | 0.00 | 0.14 | 0.14 | 100 | 1017.0 |
| 20260831031308 | 73 | 110 | 0.0 | 0.0 | 0.00 | 0.14 | 0.14 | 100 | 1017.1 |
| 20260831025749 | 73 | 110 | 0.0 | 0.0 | 0.00 | 0.14 | 0.14 | 100 | 1017.2 |
| 20260831024244 | 73 | 110 | 0.0 | 1.0 | 0.00 | 0.14 | 0.14 | 100 | 1017.3 |
| 20260831022743 | 73 | 110 | 0.0 | 2.0 | 0.00 | 0.14 | 0.14 | 100 | 1017.6 |
| 20260831021237 | 73 | 63 | 0.0 | 0.0 | 0.00 | 0.14 | 0.14 | 100 | 1017.5 |
| 20260831020409 | 73 | 63 | 0.0 | 0.0 | 0.00 | 0.14 | 0.14 | 100 | 1017.5 |
| 20260831014856 | 73 | 63 | 0.0 | 0.0 | 0.00 | 0.14 | 0.14 | 100 | 1017.5 |
| 20260831012652 | 73 | 63 | 0.0 | 2.0 | 0.11 | 0.14 | 0.14 | 100 | 1017.3 |
| 20260831011150 | 73 | 51 | 0.0 | 2.0 | 0.14 | 0.14 | 0.14 | 100 | 1017.3 |
| 20260831005649 | 73 | 213 | 0.0 | 0.0 | 0.14 | 0.14 | 0.14 | 100 | 1017.3 |
| 20260831004142 | 73 | 213 | 1.0 | 6.0 | 0.14 | 0.14 | 0.14 | 98 | 1017.7 |
| 20260831002640 | 74 | 284 | 4.0 | 16.0 | 0.00 | 0.00 | 0.02 | 95 | 1018.4 |
| 20260831001138 | 77 | 265 | 6.0 | 14.0 | 0.00 | 0.00 | 0.00 | 87 | 1018.2 |
| 20260830235636 | 82 | 257 | 0.0 | 0.0 | 0.00 | 0.00 | 0.00 | 87 | 1017.9 |
| 20260830234136 | 83 | 184 | 0.0 | 0.0 | 0.00 | 0.00 | 0.00 | 86 | 1017.1 |
| 20260830232623 | 83 | 202 | 0.0 | 0.0 | 0.00 | 0.00 | 0.00 | 86 | 1017.0 |
| 20260830231117 | 84 | 140 | 0.0 | 0.0 | 0.00 | 0.00 | 0.00 | 84 | 1016.9 |
| 20260830230325 | 84 | 157 | 0.0 | 0.0 | 0.00 | 0.00 | 0.00 | 83 | 1017.0 |
| 20260830224759 | 85 | 199 | 0.0 | 0.0 | 0.00 | 0.00 | 0.00 | 82 | 1017.2 |
| 20260830222611 | 85 | 177 | 0.0 | 0.0 | 0.00 | 0.00 | 0.00 | 81 | 1017.0 |
| 20260830221108 | 85 | 160 | 0.0 | 0.0 | 0.00 | 0.00 | 0.00 | 80 | 1016.8 |
| 20260830215606 | 86 | 197 | 0.0 | 0.0 | 0.00 | 0.00 | 0.00 | 79 | 1016.6 |
| 20260830214058 | 87 | 161 | 0.0 | 0.0 | 0.00 | 0.00 | 0.00 | 77 | 1016.8 |
| 20260830213259 | 87 | 186 | 0.0 | 0.0 | 0.00 | 0.00 | 0.00 | 78 | 1016.8 |
| 20260830211055 | 87 | 127 | 0.0 | 7.0 | 0.00 | 0.00 | 0.00 | 76 | 1016.8 |
| 20260830205551 | 89 | 144 | 2.0 | 9.0 | 0.00 | 0.00 | 0.00 | 74 | 1016.7 |
| 20260830204049 | 89 | 148 | 4.0 | 8.0 | 0.00 | 0.00 | 0.00 | 74 | 1016.8 |
| 20260830202547 | 89 | 150 | 1.0 | 9.0 | 0.00 | 0.00 | 0.00 | 74 | 1017.0 |
| 20260830201042 | 88 | 159 | 3.0 | 10.0 | 0.00 | 0.00 | 0.00 | 75 | 1017.0 |
| 20260830195542 | 88 | 144 | 3.0 | 9.0 | 0.00 | 0.00 | 0.00 | 75 | 1017.0 |
| 20260830194043 | 88 | 170 | 3.0 | 12.0 | 0.00 | 0.00 | 0.00 | 74 | 1017.2 |
| 20260830192542 | 89 | 192 | 3.0 | 11.0 | 0.00 | 0.00 | 0.00 | 75 | 1017.2 |
| 20260830191038 | 88 | 149 | 3.0 | 10.0 | 0.00 | 0.00 | 0.00 | 76 | 1017.5 |
| 20260830185532 | 88 | 188 | 3.0 | 9.0 | 0.00 | 0.00 | 0.00 | 76 | 1018.0 |
| 20260830184030 | 87 | 77 | 2.0 | 8.0 | 0.00 | 0.00 | 0.00 | 77 | 1018.1 |
| 20260830182527 | 87 | 180 | 2.0 | 9.0 | 0.00 | 0.00 | 0.00 | 77 | 1018.5 |
| 20260830181027 | 86 | 192 | 2.0 | 8.0 | 0.00 | 0.00 | 0.00 | 80 | 1018.7 |
| 20260830175522 | 84 | 159 | 2.0 | 8.0 | 0.00 | 0.00 | 0.00 | 83 | 1019.1 |
| 20260830174019 | 83 | 219 | 2.0 | 8.0 | 0.00 | 0.00 | 0.00 | 84 | 1019.3 |
| 20260830172518 | 83 | 145 | 3.0 | 10.0 | 0.00 | 0.00 | 0.00 | 83 | 1019.4 |
| 20260830171015 | 84 | 237 | 2.0 | 8.0 | 0.00 | 0.00 | 0.00 | 82 | 1019.5 |
| 20260830165504 | 85 | 178 | 4.0 | 11.0 | 0.00 | 0.00 | 0.00 | 82 | 1019.8 |
| 20260830164004 | 84 | 167 | 4.0 | 11.0 | 0.00 | 0.00 | 0.00 | 83 | 1019.7 |
| 20260830162504 | 84 | 148 | 3.0 | 10.0 | 0.00 | 0.00 | 0.00 | 83 | 1020.0 |
| 20260830161004 | 83 | 168 | 4.0 | 13.0 | 0.00 | 0.00 | 0.00 | 85 | 1020.1 |
| 20260830155505 | 82 | 252 | 2.0 | 11.0 | 0.00 | 0.00 | 0.00 | 85 | 1020.3 |
| 20260830154003 | 81 | 144 | 4.0 | 11.0 | 0.00 | 0.00 | 0.00 | 89 | 1020.3 |
| 20260830152503 | 80 | 214 | 4.0 | 11.0 | 0.00 | 0.00 | 0.00 | 92 | 1020.1 |
| 20260830150958 | 78 | 132 | 4.0 | 10.0 | 0.00 | 0.00 | 0.00 | 94 | 1020.4 |
| 20260830150201 | 78 | 203 | 3.0 | 10.0 | 0.00 | 0.00 | 0.00 | 95 | 1020.2 |
| 20260830145457 | 78 | 203 | 3.0 | 10.0 | 0.00 | 0.00 | 0.00 | 95 | 1020.2 |
| 20260830144642 | 77 | 117 | 4.0 | 11.0 | 0.00 | 0.00 | 0.00 | 96 | 1020.2 |
| 20260830142452 | 76 | 157 | 3.0 | 9.0 | 0.00 | 0.00 | 0.00 | 98 | 1020.3 |
| 20260830140951 | 76 | 184 | 1.0 | 9.0 | 0.00 | 0.00 | 0.00 | 99 | 1020.3 |
| 20260830140201 | 75 | 194 | 1.0 | 7.0 | 0.00 | 0.00 | 0.00 | 99 | 1020.4 |
| 20260830134643 | 74 | 178 | 0.0 | 0.0 | 0.00 | 0.00 | 0.00 | 100 | 1020.6 |
| 20260830132447 | 74 | 199 | 0.0 | 0.0 | 0.00 | 0.00 | 0.00 | 100 | 1020.7 |
| 20260830130937 | 74 | 212 | 0.0 | 0.0 | 0.00 | 0.00 | 0.00 | 100 | 1020.8 |
| 20260830125437 | 74 | 156 | 0.0 | 0.0 | 0.00 | 0.00 | 0.00 | 100 | 1021.0 |
| 20260830123936 | 74 | 161 | 0.0 | 0.0 | 0.00 | 0.00 | 0.00 | 100 | 1021.0 |
| 20260830123121 | 73 | 173 | 0.0 | 0.0 | 0.00 | 0.00 | 0.00 | 100 | 1020.9 |
| 20260830120930 | 73 | 184 | 0.0 | 0.0 | 0.00 | 0.00 | 0.00 | 100 | 1021.0 |
| 20260830115425 | 73 | 195 | 0.0 | 0.0 | 0.00 | 0.00 | 0.00 | 100 | 1020.9 |
| 20260830113911 | 73 | 200 | 0.0 | 0.0 | 0.00 | 0.00 | 0.00 | 100 | 1020.9 |
| 20260830112411 | 72 | 143 | 0.0 | 0.0 | 0.00 | 0.00 | 0.00 | 100 | 1021.0 |
| 20260830110909 | 72 | 136 | 0.0 | 0.0 | 0.00 | 0.00 | 0.00 | 100 | 1021.2 |
| 20260830110056 | 72 | 173 | 0.0 | 0.0 | 0.00 | 0.00 | 0.00 | 100 | 1021.0 |
| 20260830103844 | 72 | 136 | 0.0 | 0.0 | 0.00 | 0.00 | 0.00 | 100 | 1020.9 |
| 20260830102345 | 72 | 124 | 0.0 | 0.0 | 0.00 | 0.00 | 0.00 | 100 | 1020.8 |